Historyczne dane pomiarowe

Dodano dane terminowe – wersja testowa.

Dane z okresu 1951-2019

Wersja bazy: 1.34 [2019-03-16, lista zmian], aktualizacja planowana na 2019-04-15

Dane meteo z obszaru Polski uzyskane na podstawie danych udostępnionych przez Instytut Meteorologii i Gospodarki Wodnej – Państwowy Instytut Badawczy.

 

Wybierz Datę:    

       

TemperaturaWilgotnośćWiatrCiśnienieOpadyŚniegCzas trwania zjawisk
 Stacja t tx tn tng RH VA  wxwx mslp ppp RRR   cm mm wxwxwxwxwxwxwx
1961-08-14 11.5 18.3 3.9 2.2 86.8- 3.0 1.0---- 0.0------------
1961-08-13 11.7 16.6 10.2 9.6 96.5- 8.0 3.7---- 12.7------------
1961-08-12 18.4 25.2 12.7 10.9 87.3- 7.3 2.7---- 17.7------------
1961-08-11 23.3 33.3 14.5 12.4 72.0- 2.7 2.7---- 0.0------------
1961-08-10 22.5 31.1 15.0 12.9 85.5- 4.0 1.7---- 0.0------------
1961-08-09 21.6 28.8 13.1 11.5 88.3- 5.0 1.7---- 4.1------------
1961-08-08 19.2 26.5 17.0 16.2 87.0- 6.7 1.3---- 0.0------------
1961-08-07 22.9 30.3 11.3 11.1 74.0- 4.0 2.0---- 0.0------------
1961-08-06 20.2 30.4 9.9 8.7 67.5- 1.0 2.7---- 0.0------------
1961-08-05 16.8 23.4 11.6 10.8 78.5- 5.0 2.7---- 0.0------------
1961-08-04 14.2 19.9 10.2 8.8 85.5- 7.3 1.3---- 0.0------------
1961-08-03 16.0 20.8 10.0 8.3 92.0- 8.0 1.3---- 10.9------------
1961-08-02 16.6 26.3 5.4 3.8 83.8- 2.3 2.3---- 0.0------------
1961-08-01 13.3 21.0 6.0 4.2 83.0- 3.7 3.0---- 0.0------------
1961-07-31 11.9 17.3 9.1 9.3 91.5- 7.7 2.3---- 0.1------------
1961-07-30 10.3 11.1 9.2 10.1 95.5- 8.0 3.3---- 27.0------------
1961-07-29 12.1 16.9 10.2 13.4 97.8- 8.0 1.3---- 29.6------------
1961-07-28 19.8 27.5 14.1 12.0 82.8- 7.3 2.7---- 5.6------------
1961-07-27 19.0 26.8 8.0 6.5 73.5- 4.0 3.0---- 1.4------------
1961-07-26 13.7 22.4 8.6 6.7 67.0- 3.7 1.7---- 0.0------------
1961-07-25 12.3 16.2 3.4 1.8 77.8- 7.7 1.7---- 0.0------------
1961-07-24 13.8 17.2 11.2 9.0 75.3- 8.0 2.3---- 0.0------------
1961-07-23 14.9 20.0 6.4 4.5 87.0- 6.7 2.0---- 0.0------------
1961-07-22 12.4 17.9 8.4 6.3 87.8- 6.7 4.3---- 0.9------------
1961-07-21 14.0 18.0 6.4 4.4 86.0- 7.3 2.7---- 0.2------------
1961-07-20 12.6 16.9 5.6 5.1 96.5- 8.0 1.0---- 7.2------------
1961-07-19 12.1 18.2 6.4 5.3 94.8- 7.0 1.0---- 5.7------------
1961-07-18 12.9 18.8 5.1 3.6 78.0- 4.7 2.3---- 0.0------------
1961-07-17 14.5 21.9 11.0 10.0 82.3- 5.0 1.7---- 6.6------------
1961-07-16 16.0 21.8 12.2 11.5 79.3- 4.0 3.7---- 1.9------------
1961-07-15 16.4 25.4 6.4 4.8 75.0- 5.3 3.7---- 1.7------------
1961-07-14 12.2 19.1 8.1 8.6 76.5- 4.0 2.7---- 0.0------------
1961-07-13 19.6 27.5 11.5 9.0 79.5- 4.0 3.7---- 8.6------------
1961-07-12 18.3 27.5 8.2 5.8 76.0- 4.0 3.3---- 0.0------------
1961-07-11 13.9 21.2 7.9 6.8 75.0- 4.0 2.7---- 0.0------------
1961-07-10 13.2 18.4 10.4 6.9 84.3- 8.0 1.7---- 0.5------------
1961-07-09 14.9 22.3 7.0 4.5 74.5- 6.7 2.3---- 1.0------------
1961-07-08 12.3 19.5 5.2 2.8 85.8- 7.0 0.0---- 0.0------------
1961-07-07 11.9 16.7 5.1 3.8 81.3- 8.0 1.0---- 0.0------------
1961-07-06 9.9 16.9 3.0 1.9 86.5- 5.7 1.0---- 0.0------------
1961-07-05 12.2 19.8 9.6 13.0 83.3- 6.3 3.0---- 0.0------------
1961-07-04 21.0 29.1 10.9 8.4 79.5- 4.7 2.7---- 4.4------------
1961-07-03 21.7 29.4 6.6 5.3 61.5- 0.7 1.7---- 0.0------------
1961-07-02 17.4 26.9 7.3 5.1 77.3- 0.0 1.0---- 0.0------------
1961-07-01 17.1 25.0 6.9 5.8 75.0- 0.7 1.0---- 0.0------------
1961-06-30 15.0 21.7 9.1 7.8 79.0- 1.3 1.0---- 0.0------------
1961-06-29 13.9 19.4 4.4 2.7 81.0- 5.3 2.0---- 0.0------------
1961-06-28 12.8 19.2 10.9 13.9 86.8- 7.0 3.3---- 4.0------------
1961-06-27 22.5 31.6 13.0 10.0 73.8- 3.3 4.7---- 8.3------------
1961-06-26 21.5 29.8 9.6 8.4 73.8- 5.7 2.7---- 0.0------------
1961-06-25 19.5 28.4 7.2 6.3 78.5- 2.7 1.7---- 0.0------------
1961-06-24 16.6 24.2 7.4 7.0 83.8- 5.7 1.7---- 0.0------------
1961-06-23 16.1 22.4 12.4 10.4 84.0- 5.3 2.3---- 0.0------------
1961-06-22 17.5 25.4 7.4 5.3 74.8- 3.0 3.3---- 5.2------------
1961-06-21 14.8 22.9 3.5 2.1 76.8- 2.3 2.3---- 0.0------------
1961-06-20 13.1 19.1 10.1 9.5 80.3- 4.3 2.3---- 0.0------------
1961-06-19 19.7 26.8 9.6 8.0 77.5- 4.0 2.7---- 1.8------------
1961-06-18 16.6 25.0 5.6 4.4 79.5- 5.3 1.7---- 0.0------------
1961-06-17 13.2 21.1 9.0 1.7 79.3- 3.0 2.0---- 0.0------------
1961-06-16 12.2 18.6 6.7 4.9 81.8- 6.0 2.3---- 0.0------------
287.2 ms

 

Źródłem pochodzenia danych jest Instytut Meteorologii i Gospodarki Wodnej – Państwowy Instytut Badawczy. Dane Instytutu Meteorologii i Gospodarki Wodnej – Państwowego Instytutu Badawczego zostały przetworzone.

Dane źródłowe można odnaleźć na stronie https://dane.imgw.pl